Station info - map view · info · telemetry · weather · raw · status · beacons · messages · bulletins · browse · moving · my account
Callsign, ship name or locator: Clear       
It is possible to search using wildcards (*?) after a prefix. Example: OH*
APRS station DL3KDP-9 - show graphs
Map loading...
Mic-E message: En route
Location: 49°28.81' N 10°51.01' E - locator JN59KL25AF - show map - static map
5.3 miles Northwest bearing 299° from Zirndorf, Bavaria, Germany [?]
6.2 miles West bearing 273° from Fürth, Bavaria, Germany
10.0 miles West bearing 283° from Nuremberg, Bavaria, Germany
46.1 miles Southeast bearing 117° from Würzburg (Wuerzburg), Regierungsbezirk Unterfranken, Bavaria, Germany
Last position: 2018-04-15 06:55:53 EDT (8d 14h24m ago)
2018-04-15 12:55:53 CEST local time at Zirndorf, Germany [?]
Altitude: 1614 ft
Course: 332°
Device: Kenwood: TH-D72 (ht)
Last path: DL3KDP-9>TY2X81 via WIDE1-1,WIDE2-2,qAR,DG2NBN-1 (good)
Positions stored: 15999
Other SSIDs: DL3KDP-7
Stations near current position of DL3KDP-9 - show more
callsign distance last heard - EDT      callsign distance last heard - EDT
DB2NR-71.3 miles 57°2018-04-20 04:02:54 DB2NR-91.3 miles 56°2018-04-23 12:10:18
DG3NJS-91.5 miles 144°2018-04-20 16:58:01 DG5NET-92.7 miles 27°2018-04-23 10:07:19
HB9AMP-72.8 miles 77°2018-04-01 10:52:52 DK1EC-93.1 miles 41°2018-04-22 16:47:47
DK1EC-13.1 miles 41°2018-04-23 21:13:04 DG3NJS-73.1 miles 41°2018-04-06 16:40:54
DK1EC-73.1 miles 41°2018-04-12 12:40:23 DL4NBA-13.2 miles 199°2018-04-23 21:09:09
DF1ND-73.3 miles 79°2018-04-23 11:48:14 DB1NTO-113.5 miles 113°2018-04-18 18:04:34
DB1NTO-13.5 miles 113°2018-04-23 21:15:00 DC4YG-73.9 miles 97°2018-04-22 04:07:30
DL8NDG4.2 miles 36°2018-04-09 15:33:24 DL8NDG-134.2 miles 36°2018-04-23 21:19:20
DB1NTO-94.7 miles 101°2018-04-19 11:52:40 DJ7ACM-95.0 miles 116°2018-04-23 14:07:24
DJ7ACM-105.0 miles 116°2018-04-07 12:26:47 DO2RC5.1 miles 115°2018-04-23 21:20:29
Stations which heard DL3KDP-9 directly on radio –
callsign pkts first heard - EDT last heard longest (tx => rx) longest at - EDT
DB0YQ 2 2018-04-02 08:14:21 2018-04-02 08:20:34 JN59SV > JN69CQ 33.5 miles 114° 2018-04-02 08:14:21
DB0LMM 10 2018-04-02 06:44:07 2018-04-02 07:05:05 JO51XC > JO61EI 25.2 miles 46° 2018-04-02 07:05:05
DB0VOX 17 2018-04-02 08:30:48 2018-04-08 07:47:08 JN59QO > JN59MK 19.5 miles 230° 2018-04-02 08:30:48
DB0REN 6 2018-04-02 07:41:21 2018-04-02 08:11:58 JN59TV > JO50RK 37.8 miles 350° 2018-04-02 08:11:58
DB0LP 2 2018-04-08 07:22:54 2018-04-08 07:27:59 JN59LE > JN59UD 34.4 miles 95° 2018-04-08 07:27:59
DB0FUZ 11 2018-04-02 03:44:37 2018-04-02 04:08:23 JO62RK > JO62TK 5.1 miles 100° 2018-04-02 04:08:23
DM0DM 1 2018-04-02 04:17:48 2018-04-02 04:17:48 JO62PL > JO62RM 5.8 miles 68° 2018-04-02 04:17:48
DB0LPZ 3 2018-04-02 06:50:04 2018-04-02 07:05:02 JO51XC > JO61FI 28.4 miles 51° 2018-04-02 07:05:02
DG2NBN-1 1 2018-04-15 06:55:53 2018-04-15 06:55:53 JN59KL > JN59NR 20.4 miles 34° 2018-04-15 06:55:53
DB0HDF 8 2018-04-02 07:09:51 2018-04-02 07:25:43 JO50WR > JO50WV 13.6 miles 0° 2018-04-02 07:25:43
DB0WOF-10 21 2018-04-02 05:58:02 2018-04-02 06:47:11 JO61HU > JO61DQ 19.9 miles 234° 2018-04-02 05:58:02
DK1EC-1 2 2018-04-02 08:31:36 2018-04-02 08:54:38 JN59QO > JN59KM 21.6 miles 254° 2018-04-02 08:31:36
DB0ERZ 7 2018-04-02 07:07:48 2018-04-02 07:47:26 JO51XA > JO60HK 50.3 miles 142° 2018-04-02 07:07:48
DB0SON-3 3 2018-04-02 08:02:52 2018-04-02 08:14:43 JN59SV > JO50OJ 38.7 miles 333° 2018-04-02 08:13:40
DB0LDS 4 2018-04-02 03:59:11 2018-04-02 04:55:08 JO62OF > JO62TH 17.6 miles 70° 2018-04-02 04:55:08
DF0WUN 7 2018-04-02 07:38:36 2018-04-02 07:58:56 JO50VK > JO50WB 27.7 miles 175° 2018-04-02 07:38:36
DG4NFB-10 6 2018-04-02 08:40:14 2018-04-02 08:48:22 JN59NO > JN59OO 2.6 miles 94° 2018-04-02 08:48:22
DL7ATA-15 1 2018-04-02 04:12:22 2018-04-02 04:12:22 JO62QL > JO62ON 10.4 miles 316° 2018-04-02 04:12:22
DL1NBU-10 1 2018-04-02 07:42:41 2018-04-02 07:42:41 JO50VJ > JO50TI 8.5 miles 248° 2018-04-02 07:42:41
DB0ADB-10 1 2018-04-02 08:37:24 2018-04-02 08:37:24 JN59PN > JN59KV 28.5 miles 319° 2018-04-02 08:37:24
DB0BLO 1 2018-04-02 03:58:31 2018-04-02 03:58:31 JO62SK > JO62RM 7.3 miles 334° 2018-04-02 03:58:31
DF0BW 10 2018-04-02 04:28:25 2018-04-02 05:04:54 JO62NF > JO62NL 18.1 miles 3° 2018-04-02 05:04:54
DB0PDM 2 2018-04-02 04:31:42 2018-04-02 05:13:59 JO62LF > JO62MI 10.1 miles 21° 2018-04-02 05:13:59
DB0ZOD 24 2018-04-02 03:19:02 2018-04-02 04:22:17 JO62SK > JO62RM 8.3 miles 325° 2018-04-02 04:03:07
DB0LUD 19 2018-04-02 04:28:06 2018-04-02 05:00:20 JO62NH > JO62PH 7.9 miles 85° 2018-04-02 04:39:35
DO6LE 30 2018-04-07 02:35:33 2018-04-08 07:29:14 JN59LE > JN59KG 7.1 miles 326° 2018-04-08 06:56:45
DB0BBB 1 2018-04-02 03:48:55 2018-04-02 03:48:55 JO62SL > JO62SQ 13.8 miles 2° 2018-04-02 03:48:55

Only position packets which were originated by the station are shown here. The range statistics show some extra long hops, because some digipeaters do not correctly add themselves to the digipeater path. Please check the raw packets.
About this site
This page shows real-time information collected from the Automatic Position Reporting System Internet network (APRS-IS). APRS is used by amateur (ham) radio operators to transmit real-time position information, weather data, telemetry and messages over the radio. A vehicle equipped with a GPS receiver, a VHF transmitter or HF transceiver and a small computer device called a tracker transmits it's location, speed and course in a small data packet, which is then received by a nearby iGate receiving site which forwards the packet on the Internet. Systems connected to the Internet can send information on the APRS-IS without a radio transmitter, or collect and display information transmitted anywhere in the world.
FAQ · Blog · Discussion group · Linking to aprs.fi · AIS sites · Service status · Database statistics · Advertising on aprs.fi · Technical details · API · Change log · Planned changes · Credits and thanks · Terms Of Service · iPhone/iPad APRS